Time;durP1;ratioP1;P1;durP2;ratioP2;P2;SDS_P1;SDS_P2;PMS_P1;PMS_P2;Temp;Humidity;BMP_temperature;BMP_pressure;BME280_temperature;BME280_humidity;BME280_pressure;Samples;Min_cycle;Max_cycle;Signal;HPM_P1;HPM_P2
2023/03/24 00:02:12;;;;;;;;;;;11.40;99.90;;;;;;5118361;27;19924;-75
2023/03/24 00:04:39;;;;;;;;;;;11.40;99.90;;;;;;5095773;28;20046;-75
2023/03/24 00:07:04;;;;;;;;;;;11.40;99.90;;;;;;5116118;27;20351;-75
2023/03/24 00:09:31;;;;;;;;;;;11.50;99.90;;;;;;5109992;27;20002;-76
2023/03/24 00:11:57;;;;;;;;;;;11.40;99.90;;;;;;5114080;28;19930;-75
2023/03/24 00:14:23;;;;;;;;;;;11.50;99.90;;;;;;5097151;28;19925;-75
2023/03/24 00:16:49;;;;;;;;;;;11.40;99.90;;;;;;5119004;27;19938;-75
2023/03/24 00:19:15;;;;;;;;;;;11.40;99.90;;;;;;5097447;28;19928;-75
2023/03/24 00:21:41;;;;;;;;;;;11.40;99.90;;;;;;5095168;28;19924;-75
2023/03/24 00:24:07;;;;;;;;;;;11.40;99.90;;;;;;5113669;28;20386;-75
2023/03/24 00:26:36;;;;;;;;;;;11.40;99.90;;;;;;5113597;27;19933;-76
2023/03/24 00:29:03;;;;;;;;;;;11.30;99.90;;;;;;5113866;27;19924;-76
2023/03/24 00:31:29;;;;;;;;;;;11.30;99.90;;;;;;5113438;27;20411;-76
2023/03/24 00:33:55;;;;;;;;;;;11.30;99.90;;;;;;5114357;27;19924;-76
2023/03/24 00:36:21;;;;;;;;;;;11.30;99.90;;;;;;5113483;27;19923;-76
2023/03/24 00:38:48;;;;;;;;;;;11.30;99.90;;;;;;5115798;27;19949;-76
2023/03/24 00:41:18;;;;;;;;;;;11.30;99.90;;;;;;5113699;27;19924;-76
2023/03/24 00:43:45;;;;;;;;;;;11.30;99.90;;;;;;5113874;27;19930;-76
2023/03/24 00:46:12;;;;;;;;;;;11.30;99.90;;;;;;5112608;27;19966;-76
2023/03/24 00:48:40;;;;;;;;;;;11.30;99.90;;;;;;5113276;27;20010;-76
2023/03/24 00:51:06;;;;;;;;;;;11.30;99.90;;;;;;5116233;27;19927;-76
2023/03/24 00:53:33;;;;;;;;;;;11.30;99.90;;;;;;5113054;28;19935;-76
2023/03/24 00:55:59;;;;;;;;;;;11.30;99.90;;;;;;5112988;28;19928;-76
2023/03/24 00:58:25;;;;;;;;;;;11.30;99.90;;;;;;5112319;28;20048;-76
2023/03/24 01:00:52;;;;;;;;;;;11.30;99.90;;;;;;5098112;27;20013;-76
2023/03/24 01:03:20;;;;;;;;;;;11.40;99.90;;;;;;5095020;28;20318;-76
2023/03/24 01:05:47;;;;;;;;;;;11.30;99.90;;;;;;5097600;28;20048;-76
2023/03/24 01:08:19;;;;;;;;;;;11.30;99.90;;;;;;5116256;27;19923;-76
2023/03/24 01:10:52;;;;;;;;;;;11.30;99.90;;;;;;5112126;28;19930;-76
2023/03/24 01:13:22;;;;;;;;;;;11.30;99.90;;;;;;5118744;27;19957;-76
2023/03/24 01:15:48;;;;;;;;;;;11.30;99.90;;;;;;5099183;28;20367;-76
2023/03/24 01:18:14;;;;;;;;;;;11.30;99.90;;;;;;5108352;28;19945;-76
2023/03/24 01:20:40;;;;;;;;;;;11.30;99.90;;;;;;5112453;28;19924;-76
2023/03/24 01:23:06;;;;;;;;;;;11.30;99.90;;;;;;5112548;27;19991;-76
2023/03/24 01:25:34;;;;;;;;;;;11.30;99.90;;;;;;5094500;28;20417;-76
2023/03/24 01:28:00;;;;;;;;;;;11.20;99.90;;;;;;5094769;27;20019;-76
2023/03/24 01:30:26;;;;;;;;;;;11.20;99.90;;;;;;5112858;27;20387;-76
2023/03/24 01:32:52;;;;;;;;;;;11.20;99.90;;;;;;5094193;27;20401;-76
2023/03/24 01:35:18;;;;;;;;;;;11.20;99.90;;;;;;5103306;27;19935;-76
2023/03/24 01:37:44;;;;;;;;;;;11.30;99.90;;;;;;5093862;27;20339;-76
2023/03/24 01:40:13;;;;;;;;;;;11.20;99.90;;;;;;5111983;27;19928;-76
2023/03/24 01:42:38;;;;;;;;;;;11.20;99.90;;;;;;5112842;27;19934;-76
2023/03/24 01:45:23;;;;;;;;;;;11.20;99.90;;;;;;5112276;27;19924;-76
2023/03/24 01:47:48;;;;;;;;;;;11.20;99.90;;;;;;5113622;27;20034;-76
2023/03/24 01:50:14;;;;;;;;;;;11.20;99.90;;;;;;5094075;28;19963;-76
2023/03/24 01:52:41;;;;;;;;;;;11.20;99.90;;;;;;5119872;27;20288;-76
2023/03/24 01:55:17;;;;;;;;;;;11.10;99.90;;;;;;5086755;28;19928;-76
2023/03/24 01:57:54;;;;;;;;;;;11.20;99.90;;;;;;5107228;27;19976;-76
2023/03/24 02:00:20;;;;;;;;;;;11.20;99.90;;;;;;5106978;27;19930;-76
2023/03/24 02:02:53;;;;;;;;;;;11.20;99.90;;;;;;5113577;27;19924;-76
2023/03/24 02:05:21;;;;;;;;;;;11.20;99.90;;;;;;5114768;27;19928;-76
2023/03/24 02:07:52;;;;;;;;;;;11.20;99.90;;;;;;5113127;27;19966;-76
2023/03/24 02:10:19;;;;;;;;;;;11.20;99.90;;;;;;5092874;28;20340;-76
2023/03/24 02:12:45;;;;;;;;;;;11.20;99.90;;;;;;5111140;27;19923;-76
2023/03/24 02:15:12;;;;;;;;;;;11.20;99.90;;;;;;5106135;27;20749;-76
2023/03/24 02:17:43;;;;;;;;;;;11.20;99.90;;;;;;5105179;27;20347;-76
2023/03/24 02:20:18;;;;;;;;;;;11.20;99.90;;;;;;5099833;27;19924;-76
2023/03/24 02:22:43;;;;;;;;;;;11.20;99.90;;;;;;5113308;27;19924;-76
2023/03/24 02:25:31;;;;;;;;;;;11.20;99.90;;;;;;5111021;28;20004;-76
2023/03/24 02:28:16;;;;;;;;;;;11.20;99.90;;;;;;5094251;27;20381;-75
2023/03/24 02:30:48;;;;;;;;;;;11.20;99.90;;;;;;5083876;28;19924;-76
2023/03/24 02:33:40;;;;;;;;;;;11.20;99.90;;;;;;5112317;27;19928;-76
2023/03/24 02:36:14;;;;;;;;;;;11.20;99.90;;;;;;5054003;28;19930;-76
2023/03/24 02:38:39;;;;;;;;;;;11.20;99.90;;;;;;5079556;28;20082;-76
2023/03/24 02:41:28;;;;;;;;;;;11.20;99.90;;;;;;5082481;28;20015;-76
2023/03/24 02:43:56;;;;;;;;;;;11.20;99.90;;;;;;5086071;28;19931;-76
2023/03/24 02:46:22;;;;;;;;;;;11.30;99.90;;;;;;5107411;27;19924;-76
2023/03/24 02:48:53;;;;;;;;;;;11.20;99.90;;;;;;5110764;28;20077;-76
2023/03/24 02:51:39;;;;;;;;;;;11.20;99.90;;;;;;5114133;27;19932;-76
2023/03/24 02:54:08;;;;;;;;;;;11.20;99.90;;;;;;5045196;27;19923;-76
2023/03/24 02:56:45;;;;;;;;;;;11.20;99.90;;;;;;5089248;28;19966;-76
2023/03/24 02:59:16;;;;;;;;;;;11.30;99.90;;;;;;5109337;28;19924;-76
2023/03/24 03:01:52;;;;;;;;;;;11.20;99.90;;;;;;5098767;28;20045;-75
2023/03/24 03:04:22;;;;;;;;;;;11.30;99.90;;;;;;5085969;28;19924;-76
2023/03/24 03:06:51;;;;;;;;;;;11.30;99.90;;;;;;5093355;28;19932;-76
2023/03/24 03:09:18;;;;;;;;;;;11.30;99.90;;;;;;5103701;27;19923;-76
2023/03/24 03:11:46;;;;;;;;;;;11.30;99.90;;;;;;5111702;27;20389;-76
2023/03/24 03:14:16;;;;;;;;;;;11.40;99.90;;;;;;5102909;27;19927;-76
2023/03/24 03:16:53;;;;;;;;;;;11.30;99.90;;;;;;5092471;28;19924;-76
2023/03/24 03:19:20;;;;;;;;;;;11.40;99.90;;;;;;5075194;28;20397;-76
2023/03/24 03:21:47;;;;;;;;;;;11.40;99.90;;;;;;5091856;28;20034;-76
2023/03/24 03:24:33;;;;;;;;;;;11.40;99.90;;;;;;5093279;27;19967;-76
2023/03/24 03:27:04;;;;;;;;;;;11.40;99.90;;;;;;5090091;28;19928;-76
2023/03/24 03:29:33;;;;;;;;;;;11.40;99.90;;;;;;5091705;28;19931;-76
2023/03/24 03:32:06;;;;;;;;;;;11.40;99.90;;;;;;5081526;28;19967;-76
2023/03/24 03:34:50;;;;;;;;;;;11.40;99.90;;;;;;5092822;28;19949;-76
2023/03/24 03:37:40;;;;;;;;;;;11.50;99.90;;;;;;5090810;28;19923;-76
2023/03/24 03:40:10;;;;;;;;;;;11.50;99.90;;;;;;5060265;28;19924;-76
2023/03/24 03:42:36;;;;;;;;;;;11.50;99.90;;;;;;5109438;28;19931;-76
2023/03/24 03:45:01;;;;;;;;;;;11.50;99.90;;;;;;5110133;28;20408;-76
2023/03/24 03:47:27;;;;;;;;;;;11.50;99.90;;;;;;5097628;28;20297;-76
2023/03/24 03:49:53;;;;;;;;;;;11.50;99.90;;;;;;5110595;28;20023;-76
2023/03/24 03:52:19;;;;;;;;;;;11.50;99.90;;;;;;5091148;28;20014;-76
2023/03/24 03:54:46;;;;;;;;;;;11.50;99.90;;;;;;5090051;28;20015;-75
2023/03/24 03:57:12;;;;;;;;;;;11.60;99.90;;;;;;5092453;28;19923;-76
2023/03/24 03:59:38;;;;;;;;;;;11.60;99.90;;;;;;5091665;28;19946;-75
2023/03/24 04:02:15;;;;;;;;;;;11.60;99.90;;;;;;5091220;28;20006;-75
2023/03/24 04:04:51;;;;;;;;;;;11.50;99.90;;;;;;5091824;28;19927;-75
2023/03/24 04:07:35;;;;;;;;;;;11.40;99.90;;;;;;5109826;28;19946;-75
2023/03/24 04:10:16;;;;;;;;;;;11.30;99.90;;;;;;5089258;28;20335;-75
2023/03/24 04:12:56;;;;;;;;;;;11.10;99.90;;;;;;5079889;28;20393;-75
2023/03/24 04:15:30;;;;;;;;;;;11.10;99.90;;;;;;5091036;28;19924;-75
2023/03/24 04:18:22;;;;;;;;;;;11.00;99.90;;;;;;5091419;28;20353;-75
2023/03/24 04:20:51;;;;;;;;;;;11.00;99.90;;;;;;5091421;28;19934;-75
2023/03/24 04:23:25;;;;;;;;;;;11.00;99.90;;;;;;5091378;28;19924;-75
2023/03/24 04:25:57;;;;;;;;;;;10.90;99.90;;;;;;5074541;28;19944;-75
2023/03/24 04:28:36;;;;;;;;;;;10.90;99.90;;;;;;5090786;28;19963;-75
2023/03/24 04:31:24;;;;;;;;;;;10.90;99.90;;;;;;5091331;28;19924;-75
2023/03/24 04:33:53;;;;;;;;;;;10.90;99.90;;;;;;5098002;28;19955;-76
2023/03/24 04:36:28;;;;;;;;;;;10.70;99.90;;;;;;5073817;28;19928;-75
2023/03/24 04:38:56;;;;;;;;;;;10.70;99.90;;;;;;5083980;28;20409;-75
2023/03/24 04:41:24;;;;;;;;;;;10.70;99.90;;;;;;5088955;28;19935;-75
2023/03/24 04:43:51;;;;;;;;;;;10.70;99.90;;;;;;5094606;28;20501;-75
2023/03/24 04:46:16;;;;;;;;;;;10.60;99.90;;;;;;5114139;27;19932;-76
2023/03/24 04:48:47;;;;;;;;;;;10.60;99.90;;;;;;5114335;27;20412;-75
2023/03/24 04:51:13;;;;;;;;;;;10.60;99.90;;;;;;5096406;27;19927;-75
2023/03/24 04:53:39;;;;;;;;;;;10.50;99.90;;;;;;5113523;28;19927;-75
2023/03/24 04:56:23;;;;;;;;;;;10.50;99.90;;;;;;5095770;27;20415;-75
2023/03/24 04:58:49;;;;;;;;;;;10.40;99.90;;;;;;5095353;28;19928;-76
2023/03/24 05:01:15;;;;;;;;;;;10.40;99.90;;;;;;5112562;28;20023;-75
2023/03/24 05:03:44;;;;;;;;;;;10.30;99.90;;;;;;5113933;27;19927;-75
2023/03/24 05:06:11;;;;;;;;;;;10.20;99.90;;;;;;5093301;28;19924;-75
2023/03/24 05:08:37;;;;;;;;;;;10.10;99.90;;;;;;5113044;27;20377;-76
2023/03/24 05:11:03;;;;;;;;;;;10.00;99.90;;;;;;5095202;28;19931;-76
2023/03/24 05:13:28;;;;;;;;;;;10.00;99.90;;;;;;5093501;27;19975;-76
2023/03/24 05:15:54;;;;;;;;;;;9.90;99.90;;;;;;5094907;28;19995;-76
2023/03/24 05:18:19;;;;;;;;;;;9.90;99.90;;;;;;5091043;28;19928;-76
2023/03/24 05:20:45;;;;;;;;;;;9.80;99.90;;;;;;5094515;28;19924;-76
2023/03/24 05:23:11;;;;;;;;;;;9.70;99.90;;;;;;5112178;28;19924;-76
2023/03/24 05:25:36;;;;;;;;;;;9.80;99.90;;;;;;5094191;28;19923;-75
2023/03/24 05:28:02;;;;;;;;;;;9.70;99.90;;;;;;5082878;28;19924;-76
2023/03/24 05:30:27;;;;;;;;;;;9.60;99.90;;;;;;5077560;28;19924;-76
2023/03/24 05:32:53;;;;;;;;;;;9.60;99.90;;;;;;5093773;28;19923;-76
2023/03/24 05:35:18;;;;;;;;;;;9.60;99.90;;;;;;5091718;28;19924;-76
2023/03/24 05:37:44;;;;;;;;;;;9.60;99.90;;;;;;5066543;28;20302;-76
2023/03/24 05:40:10;;;;;;;;;;;9.60;99.90;;;;;;5093305;28;20316;-76
2023/03/24 05:42:35;;;;;;;;;;;9.50;99.90;;;;;;5093027;28;19931;-76
2023/03/24 05:45:01;;;;;;;;;;;9.50;99.90;;;;;;5093453;28;19931;-76
2023/03/24 05:47:26;;;;;;;;;;;9.50;99.90;;;;;;5076838;28;19924;-76
2023/03/24 05:49:52;;;;;;;;;;;9.60;99.90;;;;;;5088965;28;19924;-76
2023/03/24 05:52:19;;;;;;;;;;;9.60;99.90;;;;;;5083581;28;20294;-76
2023/03/24 05:54:45;;;;;;;;;;;9.70;99.90;;;;;;5090215;28;19976;-76
2023/03/24 05:57:15;;;;;;;;;;;9.70;99.90;;;;;;5066499;28;19931;-76
2023/03/24 05:59:40;;;;;;;;;;;9.80;99.90;;;;;;5091485;28;19924;-76
2023/03/24 06:02:06;;;;;;;;;;;9.80;99.90;;;;;;5092971;28;19931;-76
2023/03/24 06:04:32;;;;;;;;;;;9.80;99.90;;;;;;5091921;28;19931;-76
2023/03/24 06:07:00;;;;;;;;;;;9.90;99.90;;;;;;5105276;28;19923;-76
2023/03/24 06:09:27;;;;;;;;;;;9.90;99.90;;;;;;5094468;28;19923;-76
2023/03/24 06:11:53;;;;;;;;;;;9.90;99.90;;;;;;5093111;28;19931;-76
2023/03/24 06:14:19;;;;;;;;;;;9.90;99.90;;;;;;5114005;27;19954;-76
2023/03/24 06:16:44;;;;;;;;;;;10.00;99.90;;;;;;5092889;28;19924;-76
2023/03/24 06:19:10;;;;;;;;;;;10.00;99.90;;;;;;5110739;28;20408;-76
2023/03/24 06:21:35;;;;;;;;;;;10.00;99.90;;;;;;5114250;27;19924;-76
2023/03/24 06:24:02;;;;;;;;;;;10.00;99.90;;;;;;5112815;27;19976;-76
2023/03/24 06:26:29;;;;;;;;;;;10.00;99.90;;;;;;5111437;28;19930;-76
2023/03/24 06:28:55;;;;;;;;;;;10.10;99.90;;;;;;5110481;28;20389;-76
2023/03/24 06:31:21;;;;;;;;;;;10.10;99.90;;;;;;5091433;28;19970;-76
2023/03/24 06:33:46;;;;;;;;;;;10.10;99.90;;;;;;5111000;28;20931;-76
2023/03/24 06:36:12;;;;;;;;;;;10.10;99.90;;;;;;5090567;28;20313;-76
2023/03/24 06:38:38;;;;;;;;;;;10.10;99.90;;;;;;5092833;28;19923;-76
2023/03/24 06:41:04;;;;;;;;;;;10.10;99.90;;;;;;5110751;28;19976;-76
2023/03/24 06:43:30;;;;;;;;;;;10.10;99.90;;;;;;5087213;28;19924;-76
2023/03/24 06:45:55;;;;;;;;;;;10.10;99.90;;;;;;5105188;27;19939;-76
2023/03/24 06:48:21;;;;;;;;;;;10.20;99.90;;;;;;5093758;28;19927;-76
2023/03/24 06:50:47;;;;;;;;;;;10.20;99.90;;;;;;5083831;28;19924;-76
2023/03/24 06:53:12;;;;;;;;;;;10.20;99.90;;;;;;5094236;28;20049;-77
2023/03/24 06:55:38;;;;;;;;;;;10.20;99.90;;;;;;5092687;28;20005;-77
2023/03/24 06:58:04;;;;;;;;;;;10.20;99.90;;;;;;5112151;27;19923;-77
2023/03/24 07:00:29;;;;;;;;;;;10.20;99.90;;;;;;5065446;28;19928;-77
2023/03/24 07:02:55;;;;;;;;;;;10.10;99.90;;;;;;5110459;28;19968;-77
2023/03/24 07:05:21;;;;;;;;;;;10.20;99.90;;;;;;5094379;27;19931;-76
2023/03/24 07:07:46;;;;;;;;;;;10.20;99.90;;;;;;5092178;28;19931;-77
2023/03/24 07:10:12;;;;;;;;;;;10.20;99.90;;;;;;5092432;28;19996;-77
2023/03/24 07:12:39;;;;;;;;;;;10.20;99.90;;;;;;5108195;28;20178;-77
2023/03/24 07:15:06;;;;;;;;;;;10.20;99.90;;;;;;5109840;28;20005;-77
2023/03/24 07:17:31;;;;;;;;;;;10.20;99.90;;;;;;5112565;27;19923;-77
2023/03/24 07:19:57;;;;;;;;;;;10.20;99.90;;;;;;5109979;28;19930;-77
2023/03/24 07:22:23;;;;;;;;;;;10.20;99.90;;;;;;5110056;28;20343;-77
2023/03/24 07:24:48;;;;;;;;;;;10.20;99.90;;;;;;5110001;28;19972;-77
2023/03/24 07:27:14;;;;;;;;;;;10.20;99.90;;;;;;5109199;28;19924;-76
2023/03/24 07:29:39;;;;;;;;;;;10.20;99.90;;;;;;5110444;28;19931;-76
2023/03/24 07:32:06;;;;;;;;;;;10.20;99.90;;;;;;5111865;27;19928;-76
2023/03/24 07:34:32;;;;;;;;;;;10.20;99.90;;;;;;5111094;27;19924;-77
2023/03/24 07:36:58;;;;;;;;;;;10.20;99.90;;;;;;5108857;28;19949;-77
2023/03/24 07:39:23;;;;;;;;;;;10.20;99.90;;;;;;5075414;28;20429;-77
2023/03/24 07:41:49;;;;;;;;;;;10.20;99.90;;;;;;5090407;28;19999;-76
2023/03/24 07:44:14;;;;;;;;;;;10.30;99.90;;;;;;5072903;28;19937;-76
2023/03/24 07:46:40;;;;;;;;;;;10.30;99.90;;;;;;5083670;28;19931;-76
2023/03/24 07:49:06;;;;;;;;;;;10.30;99.90;;;;;;5105913;28;19930;-76
2023/03/24 07:51:32;;;;;;;;;;;10.30;99.90;;;;;;5106841;28;20403;-76
2023/03/24 07:53:57;;;;;;;;;;;10.30;99.90;;;;;;5089406;28;20318;-75
2023/03/24 07:56:23;;;;;;;;;;;10.30;99.90;;;;;;5112392;28;20329;-75
2023/03/24 07:58:48;;;;;;;;;;;10.30;99.90;;;;;;5110731;28;19924;-75
2023/03/24 08:01:14;;;;;;;;;;;10.30;99.90;;;;;;5089829;28;20011;-74
2023/03/24 08:03:40;;;;;;;;;;;10.40;99.90;;;;;;5091669;28;20389;-74
2023/03/24 08:06:07;;;;;;;;;;;10.40;99.90;;;;;;5108890;28;19928;-75
2023/03/24 08:08:32;;;;;;;;;;;10.40;99.90;;;;;;5107862;28;19966;-76
2023/03/24 08:10:58;;;;;;;;;;;10.40;99.90;;;;;;5112056;28;19983;-75
2023/03/24 08:13:25;;;;;;;;;;;10.50;99.90;;;;;;5109122;28;20017;-75
2023/03/24 08:15:52;;;;;;;;;;;10.50;99.90;;;;;;5087403;28;19932;-75
2023/03/24 08:18:19;;;;;;;;;;;10.50;99.90;;;;;;5114919;27;19924;-75
2023/03/24 08:20:45;;;;;;;;;;;10.60;99.90;;;;;;5117321;27;19976;-75
2023/03/24 08:23:10;;;;;;;;;;;10.70;99.90;;;;;;5094909;28;19928;-75
2023/03/24 08:25:36;;;;;;;;;;;10.70;99.90;;;;;;5109288;27;19931;-75
2023/03/24 08:28:02;;;;;;;;;;;10.70;99.90;;;;;;5113591;28;19931;-75
2023/03/24 08:30:27;;;;;;;;;;;10.80;99.90;;;;;;5089084;28;19935;-75
2023/03/24 08:32:54;;;;;;;;;;;10.90;99.90;;;;;;5113430;28;19924;-76
2023/03/24 08:35:24;;;;;;;;;;;10.90;99.90;;;;;;5092303;28;19923;-75
2023/03/24 08:37:50;;;;;;;;;;;11.00;99.90;;;;;;5094563;28;19931;-75
2023/03/24 08:40:19;;;;;;;;;;;11.00;99.90;;;;;;5114114;27;19927;-75
2023/03/24 08:42:48;;;;;;;;;;;11.10;99.90;;;;;;5113053;28;20002;-76
2023/03/24 08:45:15;;;;;;;;;;;11.10;99.90;;;;;;5105482;27;19935;-76
2023/03/24 08:47:40;;;;;;;;;;;11.10;99.90;;;;;;5095826;27;20018;-76
2023/03/24 08:50:07;;;;;;;;;;;11.20;99.90;;;;;;5112448;27;20026;-76
2023/03/24 08:52:32;;;;;;;;;;;11.20;99.90;;;;;;5114288;27;19923;-76
2023/03/24 08:54:58;;;;;;;;;;;11.30;99.90;;;;;;5114580;27;19927;-76
2023/03/24 08:57:24;;;;;;;;;;;11.50;99.90;;;;;;5108357;28;19923;-76
2023/03/24 08:59:49;;;;;;;;;;;11.50;99.90;;;;;;5112654;27;20274;-76
2023/03/24 09:02:15;;;;;;;;;;;11.50;99.90;;;;;;5111804;27;19931;-76
2023/03/24 09:04:41;;;;;;;;;;;11.40;99.90;;;;;;5114689;27;20361;-76
2023/03/24 09:07:08;;;;;;;;;;;11.50;99.90;;;;;;5112403;27;20389;-76
2023/03/24 09:09:33;;;;;;;;;;;11.60;99.90;;;;;;5111771;28;20061;-76
2023/03/24 09:11:59;;;;;;;;;;;11.80;99.90;;;;;;5112665;27;20018;-76
2023/03/24 09:14:24;;;;;;;;;;;12.00;99.90;;;;;;5116235;27;19930;-76
2023/03/24 09:16:51;;;;;;;;;;;12.10;99.90;;;;;;5095268;27;19924;-76
2023/03/24 09:19:17;;;;;;;;;;;12.30;99.90;;;;;;5119213;27;19928;-76
2023/03/24 09:21:46;;;;;;;;;;;12.30;99.90;;;;;;5092645;28;20267;-77
2023/03/24 09:24:11;;;;;;;;;;;12.60;99.90;;;;;;5117259;27;19927;-77
2023/03/24 09:26:37;;;;;;;;;;;13.30;99.90;;;;;;5116840;27;20390;-77
2023/03/24 09:29:03;;;;;;;;;;;14.20;99.90;;;;;;5112048;28;19924;-77
2023/03/24 09:31:28;;;;;;;;;;;14.80;99.90;;;;;;5118994;27;19935;-77
2023/03/24 09:33:54;;;;;;;;;;;15.00;99.90;;;;;;5115126;27;20010;-77
2023/03/24 09:36:19;;;;;;;;;;;15.10;99.90;;;;;;5111191;27;19930;-77
2023/03/24 09:38:45;;;;;;;;;;;15.30;99.90;;;;;;5100552;28;19931;-77
2023/03/24 09:41:16;;;;;;;;;;;15.40;99.90;;;;;;5093521;27;19977;-76
2023/03/24 09:43:53;;;;;;;;;;;15.40;99.90;;;;;;5094325;28;20393;-76
2023/03/24 09:46:23;;;;;;;;;;;15.40;99.90;;;;;;5109531;28;19923;-77
2023/03/24 09:48:56;;;;;;;;;;;15.20;99.90;;;;;;5111009;27;19985;-77
2023/03/24 09:51:26;;;;;;;;;;;14.90;99.90;;;;;;5094885;28;20300;-76
2023/03/24 09:53:55;;;;;;;;;;;14.40;99.90;;;;;;5112843;27;19923;-76
2023/03/24 09:56:21;;;;;;;;;;;13.80;99.90;;;;;;5091653;27;21449;-76
2023/03/24 09:58:52;;;;;;;;;;;13.40;99.90;;;;;;5102099;27;19924;-76
2023/03/24 10:01:18;;;;;;;;;;;13.00;99.90;;;;;;5111903;27;20026;-77
2023/03/24 10:03:44;;;;;;;;;;;12.80;99.90;;;;;;5112881;27;20253;-77
2023/03/24 10:06:14;;;;;;;;;;;12.70;99.90;;;;;;5112454;27;19928;-77
2023/03/24 10:08:45;;;;;;;;;;;12.90;99.90;;;;;;5113458;27;19924;-77
2023/03/24 10:11:22;;;;;;;;;;;13.50;99.90;;;;;;5111725;27;20614;-77
2023/03/24 10:14:06;;;;;;;;;;;14.40;99.90;;;;;;5113626;27;19959;-77
2023/03/24 10:16:40;;;;;;;;;;;15.10;99.90;;;;;;5112136;27;20389;-77
2023/03/24 10:19:24;;;;;;;;;;;15.70;99.90;;;;;;5111490;27;19931;-77
2023/03/24 10:21:56;;;;;;;;;;;16.10;99.90;;;;;;5094209;27;20494;-77
2023/03/24 10:24:28;;;;;;;;;;;16.50;99.90;;;;;;5077552;28;19931;-75
2023/03/24 10:26:58;;;;;;;;;;;16.60;99.90;;;;;;5092295;28;19924;-76
2023/03/24 10:29:34;;;;;;;;;;;16.40;99.90;;;;;;5094080;28;19931;-76
2023/03/24 10:32:01;;;;;;;;;;;16.10;99.90;;;;;;5090994;28;20470;-76
2023/03/24 10:34:29;;;;;;;;;;;16.10;99.90;;;;;;5112120;27;19924;-76
2023/03/24 10:36:57;;;;;;;;;;;16.40;99.90;;;;;;5110518;28;19930;-74
2023/03/24 10:39:23;;;;;;;;;;;16.70;99.90;;;;;;5110397;28;20300;-75
2023/03/24 10:41:49;;;;;;;;;;;17.00;99.90;;;;;;5080582;28;19928;-75
2023/03/24 10:44:16;;;;;;;;;;;17.30;99.90;;;;;;5112404;27;19924;-77
2023/03/24 10:46:45;;;;;;;;;;;17.50;99.90;;;;;;5090252;28;19960;-77
2023/03/24 10:49:11;;;;;;;;;;;17.70;99.90;;;;;;5093683;28;20440;-77
2023/03/24 10:51:37;;;;;;;;;;;17.80;99.90;;;;;;5093203;28;19923;-76
2023/03/24 10:54:10;;;;;;;;;;;17.70;99.90;;;;;;5109647;27;19931;-76
2023/03/24 10:56:38;;;;;;;;;;;17.60;99.90;;;;;;5108213;27;20378;-75
2023/03/24 10:59:14;;;;;;;;;;;17.80;99.90;;;;;;5092063;28;19957;-76
2023/03/24 11:01:40;;;;;;;;;;;18.10;99.90;;;;;;5106400;28;19931;-76
2023/03/24 11:04:06;;;;;;;;;;;18.30;99.90;;;;;;5092011;28;19923;-76
2023/03/24 11:06:32;;;;;;;;;;;18.10;99.90;;;;;;5092208;28;19923;-76
2023/03/24 11:09:17;;;;;;;;;;;17.90;99.90;;;;;;5092437;27;19924;-73
2023/03/24 11:11:42;;;;;;;;;;;18.00;99.90;;;;;;5110208;28;19924;-76
2023/03/24 11:14:18;;;;;;;;;;;17.70;99.90;;;;;;5090829;28;19984;-77
2023/03/24 11:16:43;;;;;;;;;;;17.10;99.90;;;;;;5089464;28;19924;-76
2023/03/24 11:19:19;;;;;;;;;;;16.50;99.90;;;;;;5088883;28;20342;-76
2023/03/24 11:21:45;;;;;;;;;;;16.10;99.90;;;;;;5106189;27;20006;-77
2023/03/24 11:24:15;;;;;;;;;;;15.80;99.90;;;;;;5110322;27;20006;-75
2023/03/24 11:26:44;;;;;;;;;;;15.60;99.90;;;;;;5111082;28;19992;-75
2023/03/24 11:29:20;;;;;;;;;;;15.60;99.90;;;;;;5109971;28;19932;-76
2023/03/24 11:31:55;;;;;;;;;;;15.90;99.90;;;;;;5108618;28;20010;-77
2023/03/24 11:34:25;;;;;;;;;;;16.40;99.90;;;;;;5112172;27;20294;-77
2023/03/24 11:36:51;;;;;;;;;;;16.90;99.90;;;;;;5111119;28;19934;-77
2023/03/24 11:39:19;;;;;;;;;;;17.50;99.90;;;;;;5089975;28;19930;-77
2023/03/24 11:42:03;;;;;;;;;;;17.40;99.90;;;;;;5110641;28;19938;-77
2023/03/24 11:44:30;;;;;;;;;;;16.90;98.70;;;;;;5107299;28;19934;-77
2023/03/24 11:46:57;;;;;;;;;;;16.20;99.90;;;;;;5112134;28;19923;-76
2023/03/24 11:49:30;;;;;;;;;;;15.90;99.90;;;;;;5110795;28;19950;-77
2023/03/24 11:51:56;;;;;;;;;;;15.50;99.90;;;;;;5090123;28;19930;-77
2023/03/24 11:54:31;;;;;;;;;;;15.10;99.90;;;;;;5112320;27;19932;-77
2023/03/24 11:56:58;;;;;;;;;;;15.30;99.90;;;;;;5112481;28;20334;-77
2023/03/24 11:59:33;;;;;;;;;;;16.20;99.90;;;;;;5113622;28;19977;-78
2023/03/24 12:01:58;;;;;;;;;;;16.80;99.90;;;;;;5104190;28;19934;-78
2023/03/24 12:04:42;;;;;;;;;;;17.00;99.90;;;;;;5110477;28;19923;-77
2023/03/24 12:07:08;;;;;;;;;;;17.20;99.90;;;;;;5111882;28;20010;-78
2023/03/24 12:09:34;;;;;;;;;;;17.80;99.90;;;;;;5114644;27;20362;-77
2023/03/24 12:12:12;;;;;;;;;;;18.30;99.90;;;;;;5095540;27;19935;-78
2023/03/24 12:14:58;;;;;;;;;;;18.60;98.70;;;;;;5114013;27;20475;-78
2023/03/24 12:17:24;;;;;;;;;;;19.20;97.80;;;;;;5100576;28;19939;-77
2023/03/24 12:19:56;;;;;;;;;;;19.20;93.60;;;;;;5114481;27;20003;-78
2023/03/24 12:22:51;;;;;;;;;;;19.20;94.80;;;;;;5113605;27;20019;-78
2023/03/24 12:25:21;;;;;;;;;;;18.90;95.40;;;;;;5090114;28;19928;-77
2023/03/24 12:28:05;;;;;;;;;;;18.30;95.20;;;;;;5114365;27;20300;-77
2023/03/24 12:30:39;;;;;;;;;;;17.40;93.50;;;;;;5074840;28;20034;-77
2023/03/24 12:33:14;;;;;;;;;;;16.60;94.90;;;;;;5094815;28;19968;-77
2023/03/24 12:35:52;;;;;;;;;;;16.20;96.00;;;;;;5093920;28;20394;-77
2023/03/24 12:38:27;;;;;;;;;;;16.10;97.50;;;;;;5107897;27;19928;-77
2023/03/24 12:41:05;;;;;;;;;;;16.20;98.60;;;;;;5105635;27;19923;-78
2023/03/24 12:43:49;;;;;;;;;;;16.00;98.20;;;;;;5113243;27;20797;-78
2023/03/24 12:46:24;;;;;;;;;;;15.70;98.80;;;;;;5095706;27;20305;-78
2023/03/24 12:48:58;;;;;;;;;;;16.10;99.20;;;;;;5094740;28;19924;-78
2023/03/24 12:51:46;;;;;;;;;;;16.30;99.80;;;;;;5093894;28;20389;-78
2023/03/24 12:54:28;;;;;;;;;;;17.10;99.90;;;;;;5094346;28;19928;-78
2023/03/24 12:56:57;;;;;;;;;;;18.00;98.00;;;;;;5094371;28;20019;-78
2023/03/24 12:59:31;;;;;;;;;;;18.10;97.10;;;;;;5113559;27;20306;-78
2023/03/24 13:02:08;;;;;;;;;;;18.50;97.80;;;;;;5112892;27;20385;-77
2023/03/24 13:04:36;;;;;;;;;;;18.50;96.90;;;;;;5111247;28;20017;-77
2023/03/24 13:07:05;;;;;;;;;;;17.90;96.20;;;;;;5108814;27;19923;-77
2023/03/24 13:09:33;;;;;;;;;;;18.20;98.30;;;;;;5112879;27;19942;-77
2023/03/24 13:12:01;;;;;;;;;;;18.00;97.90;;;;;;5112967;27;19933;-77
2023/03/24 13:14:30;;;;;;;;;;;18.20;98.40;;;;;;5113238;27;19959;-77
2023/03/24 13:17:00;;;;;;;;;;;18.70;98.70;;;;;;5094314;27;20555;-77
2023/03/24 13:19:26;;;;;;;;;;;19.00;96.80;;;;;;5113220;27;19930;-77
2023/03/24 13:21:53;;;;;;;;;;;19.40;95.70;;;;;;5111652;27;19935;-77
2023/03/24 13:24:18;;;;;;;;;;;19.40;94.60;;;;;;5111502;27;20293;-77
2023/03/24 13:27:01;;;;;;;;;;;19.50;93.00;;;;;;5096217;28;19931;-76
2023/03/24 13:29:45;;;;;;;;;;;19.00;93.40;;;;;;5101982;28;20382;-77
2023/03/24 13:32:23;;;;;;;;;;;18.30;93.70;;;;;;5115010;27;19951;-77
2023/03/24 13:34:48;;;;;;;;;;;18.50;96.00;;;;;;5114518;27;19931;-77
2023/03/24 13:37:21;;;;;;;;;;;18.70;94.50;;;;;;5112075;27;19928;-77
2023/03/24 13:39:50;;;;;;;;;;;18.80;95.40;;;;;;5110160;27;19999;-77
2023/03/24 13:42:28;;;;;;;;;;;18.60;93.00;;;;;;5083993;28;19934;-77
2023/03/24 13:44:53;;;;;;;;;;;17.90;92.40;;;;;;5113156;27;19924;-77
2023/03/24 13:47:19;;;;;;;;;;;17.20;92.70;;;;;;5103206;27;19939;-77
2023/03/24 13:49:54;;;;;;;;;;;17.30;93.50;;;;;;5092583;28;20404;-78
2023/03/24 13:52:46;;;;;;;;;;;17.10;94.70;;;;;;5105362;28;19924;-78
2023/03/24 13:55:25;;;;;;;;;;;17.60;94.70;;;;;;5085924;28;19924;-78
2023/03/24 13:58:04;;;;;;;;;;;18.50;92.50;;;;;;5118041;27;19923;-78
2023/03/24 14:00:30;;;;;;;;;;;18.90;91.80;;;;;;5111447;28;19927;-78
2023/03/24 14:03:11;;;;;;;;;;;18.90;86.70;;;;;;5117560;27;19924;-78
2023/03/24 14:05:58;;;;;;;;;;;18.70;88.00;;;;;;5112026;27;19930;-78
2023/03/24 14:08:42;;;;;;;;;;;18.20;86.20;;;;;;5117491;27;19969;-76
2023/03/24 14:53:46;;;;;;;10.85;2.08;;;16.00;96.40;;;;;;5122672;27;20406;-76
2023/03/24 14:56:15;;;;;;;11.45;1.65;;;16.00;98.70;;;;;;5067710;28;20437;-75
2023/03/24 14:58:45;;;;;;;12.93;2.28;;;15.90;98.50;;;;;;5086845;28;20470;-75
2023/03/24 15:01:11;;;;;;;9.82;1.83;;;15.80;99.40;;;;;;5086308;28;20421;-75
2023/03/24 15:03:55;;;;;;;9.80;1.75;;;15.90;99.00;;;;;;5120336;27;20767;-75
2023/03/24 15:06:22;;;;;;;9.77;1.50;;;15.80;99.20;;;;;;5120155;27;20474;-75
2023/03/24 15:08:53;;;;;;;9.98;1.40;;;15.60;99.90;;;;;;5104744;28;20397;-75
2023/03/24 15:11:25;;;;;;;9.73;1.85;;;15.40;99.90;;;;;;5104719;28;20397;-76
2023/03/24 15:13:52;;;;;;;10.48;1.60;;;15.50;99.90;;;;;;5105097;28;20402;-76